sensor_id;sensor_type;location;lat;lon;timestamp;P1;durP1;ratioP1;P2;durP2;ratioP2
84478;SDS011;74701;43.248;0.066;2024-02-04T00:00:17;38.58;;;26.83;;
84478;SDS011;74701;43.248;0.066;2024-02-04T00:02:43;34.08;;;23.10;;
84478;SDS011;74701;43.248;0.066;2024-02-04T00:05:09;35.05;;;23.77;;
84478;SDS011;74701;43.248;0.066;2024-02-04T00:07:35;34.40;;;25.35;;
84478;SDS011;74701;43.248;0.066;2024-02-04T00:10:01;36.03;;;23.55;;
84478;SDS011;74701;43.248;0.066;2024-02-04T00:12:28;33.63;;;22.80;;
84478;SDS011;74701;43.248;0.066;2024-02-04T00:14:54;35.78;;;23.05;;
84478;SDS011;74701;43.248;0.066;2024-02-04T00:17:22;30.05;;;21.83;;
84478;SDS011;74701;43.248;0.066;2024-02-04T00:19:48;41.50;;;24.10;;
84478;SDS011;74701;43.248;0.066;2024-02-04T00:22:14;33.42;;;23.50;;
84478;SDS011;74701;43.248;0.066;2024-02-04T00:24:43;35.75;;;21.73;;
84478;SDS011;74701;43.248;0.066;2024-02-04T00:27:09;36.03;;;20.92;;
84478;SDS011;74701;43.248;0.066;2024-02-04T00:29:35;29.27;;;18.65;;
84478;SDS011;74701;43.248;0.066;2024-02-04T00:32:01;31.25;;;19.13;;
84478;SDS011;74701;43.248;0.066;2024-02-04T00:34:27;25.98;;;18.15;;
84478;SDS011;74701;43.248;0.066;2024-02-04T00:36:53;27.23;;;17.63;;
84478;SDS011;74701;43.248;0.066;2024-02-04T00:39:19;27.45;;;18.05;;
84478;SDS011;74701;43.248;0.066;2024-02-04T00:41:45;23.50;;;16.98;;
84478;SDS011;74701;43.248;0.066;2024-02-04T00:44:11;21.67;;;15.32;;
84478;SDS011;74701;43.248;0.066;2024-02-04T00:46:37;30.77;;;18.35;;
84478;SDS011;74701;43.248;0.066;2024-02-04T00:49:03;24.75;;;17.98;;
84478;SDS011;74701;43.248;0.066;2024-02-04T00:51:29;28.67;;;17.45;;
84478;SDS011;74701;43.248;0.066;2024-02-04T00:53:55;23.92;;;17.00;;
84478;SDS011;74701;43.248;0.066;2024-02-04T00:56:22;26.77;;;18.58;;
84478;SDS011;74701;43.248;0.066;2024-02-04T00:58:48;28.98;;;18.08;;
84478;SDS011;74701;43.248;0.066;2024-02-04T01:01:14;26.90;;;17.17;;
84478;SDS011;74701;43.248;0.066;2024-02-04T01:03:40;27.45;;;18.33;;
84478;SDS011;74701;43.248;0.066;2024-02-04T01:06:06;25.15;;;16.92;;
84478;SDS011;74701;43.248;0.066;2024-02-04T01:08:32;25.65;;;18.02;;
84478;SDS011;74701;43.248;0.066;2024-02-04T01:10:59;29.25;;;18.17;;
84478;SDS011;74701;43.248;0.066;2024-02-04T01:13:27;26.77;;;17.42;;
84478;SDS011;74701;43.248;0.066;2024-02-04T01:15:53;25.95;;;17.65;;
84478;SDS011;74701;43.248;0.066;2024-02-04T01:18:19;27.58;;;16.30;;
84478;SDS011;74701;43.248;0.066;2024-02-04T01:20:45;27.67;;;16.77;;
84478;SDS011;74701;43.248;0.066;2024-02-04T01:23:12;24.33;;;17.23;;
84478;SDS011;74701;43.248;0.066;2024-02-04T01:25:38;26.05;;;16.67;;
84478;SDS011;74701;43.248;0.066;2024-02-04T01:28:04;27.00;;;18.90;;
84478;SDS011;74701;43.248;0.066;2024-02-04T01:30:30;24.40;;;17.38;;
84478;SDS011;74701;43.248;0.066;2024-02-04T01:32:56;25.65;;;17.08;;
84478;SDS011;74701;43.248;0.066;2024-02-04T01:35:22;26.13;;;15.77;;
84478;SDS011;74701;43.248;0.066;2024-02-04T01:37:48;27.52;;;17.20;;
84478;SDS011;74701;43.248;0.066;2024-02-04T01:40:15;22.98;;;16.38;;
84478;SDS011;74701;43.248;0.066;2024-02-04T01:42:41;22.77;;;16.38;;
84478;SDS011;74701;43.248;0.066;2024-02-04T01:45:07;24.88;;;16.40;;
84478;SDS011;74701;43.248;0.066;2024-02-04T01:47:33;24.73;;;16.63;;
84478;SDS011;74701;43.248;0.066;2024-02-04T01:49:59;31.63;;;17.85;;
84478;SDS011;74701;43.248;0.066;2024-02-04T01:52:26;25.02;;;17.65;;
84478;SDS011;74701;43.248;0.066;2024-02-04T01:54:52;26.20;;;16.20;;
84478;SDS011;74701;43.248;0.066;2024-02-04T01:57:18;23.45;;;17.00;;
84478;SDS011;74701;43.248;0.066;2024-02-04T01:59:45;24.58;;;16.15;;
84478;SDS011;74701;43.248;0.066;2024-02-04T02:02:11;22.25;;;15.00;;
84478;SDS011;74701;43.248;0.066;2024-02-04T02:04:38;22.63;;;16.33;;
84478;SDS011;74701;43.248;0.066;2024-02-04T02:07:04;24.65;;;15.55;;
84478;SDS011;74701;43.248;0.066;2024-02-04T02:09:32;20.95;;;15.60;;
84478;SDS011;74701;43.248;0.066;2024-02-04T02:12:12;22.67;;;15.40;;
84478;SDS011;74701;43.248;0.066;2024-02-04T02:14:40;22.17;;;15.32;;
84478;SDS011;74701;43.248;0.066;2024-02-04T02:17:07;22.75;;;16.08;;
84478;SDS011;74701;43.248;0.066;2024-02-04T02:22:24;25.88;;;16.70;;
84478;SDS011;74701;43.248;0.066;2024-02-04T02:24:51;24.52;;;16.80;;
84478;SDS011;74701;43.248;0.066;2024-02-04T02:27:17;23.67;;;16.55;;
84478;SDS011;74701;43.248;0.066;2024-02-04T02:29:43;22.70;;;15.98;;
84478;SDS011;74701;43.248;0.066;2024-02-04T02:32:09;24.65;;;16.08;;
84478;SDS011;74701;43.248;0.066;2024-02-04T02:34:35;26.42;;;15.95;;
84478;SDS011;74701;43.248;0.066;2024-02-04T02:37:13;23.50;;;14.18;;
84478;SDS011;74701;43.248;0.066;2024-02-04T02:39:42;24.60;;;15.50;;
84478;SDS011;74701;43.248;0.066;2024-02-04T02:42:11;22.38;;;15.05;;
84478;SDS011;74701;43.248;0.066;2024-02-04T02:44:38;21.80;;;15.55;;
84478;SDS011;74701;43.248;0.066;2024-02-04T02:47:04;25.30;;;17.33;;
84478;SDS011;74701;43.248;0.066;2024-02-04T02:49:31;28.83;;;17.30;;
84478;SDS011;74701;43.248;0.066;2024-02-04T02:51:57;27.83;;;17.90;;
84478;SDS011;74701;43.248;0.066;2024-02-04T02:54:23;25.02;;;15.90;;
84478;SDS011;74701;43.248;0.066;2024-02-04T02:56:49;27.90;;;17.25;;
84478;SDS011;74701;43.248;0.066;2024-02-04T02:59:15;26.63;;;16.17;;
84478;SDS011;74701;43.248;0.066;2024-02-04T03:01:41;23.73;;;16.63;;
84478;SDS011;74701;43.248;0.066;2024-02-04T03:04:07;28.50;;;17.92;;
84478;SDS011;74701;43.248;0.066;2024-02-04T03:06:33;28.75;;;15.90;;
84478;SDS011;74701;43.248;0.066;2024-02-04T03:08:59;25.50;;;16.30;;
84478;SDS011;74701;43.248;0.066;2024-02-04T03:11:25;24.67;;;15.85;;
84478;SDS011;74701;43.248;0.066;2024-02-04T03:13:52;23.02;;;16.17;;
84478;SDS011;74701;43.248;0.066;2024-02-04T03:16:18;23.17;;;15.95;;
84478;SDS011;74701;43.248;0.066;2024-02-04T03:18:45;24.33;;;15.95;;
84478;SDS011;74701;43.248;0.066;2024-02-04T03:21:15;23.08;;;15.98;;
84478;SDS011;74701;43.248;0.066;2024-02-04T03:23:41;23.70;;;15.63;;
84478;SDS011;74701;43.248;0.066;2024-02-04T03:26:08;22.80;;;15.73;;
84478;SDS011;74701;43.248;0.066;2024-02-04T03:28:34;25.30;;;16.67;;
84478;SDS011;74701;43.248;0.066;2024-02-04T03:31:00;23.10;;;16.40;;
84478;SDS011;74701;43.248;0.066;2024-02-04T03:33:26;27.65;;;16.92;;
84478;SDS011;74701;43.248;0.066;2024-02-04T03:35:53;23.33;;;15.32;;
84478;SDS011;74701;43.248;0.066;2024-02-04T03:38:19;22.92;;;15.52;;
84478;SDS011;74701;43.248;0.066;2024-02-04T03:40:45;23.27;;;15.20;;
84478;SDS011;74701;43.248;0.066;2024-02-04T03:43:11;20.30;;;13.95;;
84478;SDS011;74701;43.248;0.066;2024-02-04T03:45:37;23.27;;;16.08;;
84478;SDS011;74701;43.248;0.066;2024-02-04T03:48:03;25.70;;;16.02;;
84478;SDS011;74701;43.248;0.066;2024-02-04T03:50:29;24.23;;;17.10;;
84478;SDS011;74701;43.248;0.066;2024-02-04T03:52:55;23.98;;;15.75;;
84478;SDS011;74701;43.248;0.066;2024-02-04T03:55:21;25.13;;;16.35;;
84478;SDS011;74701;43.248;0.066;2024-02-04T03:57:47;23.77;;;15.40;;
84478;SDS011;74701;43.248;0.066;2024-02-04T04:00:13;24.65;;;16.55;;
84478;SDS011;74701;43.248;0.066;2024-02-04T04:02:40;27.30;;;16.02;;
84478;SDS011;74701;43.248;0.066;2024-02-04T04:05:06;25.00;;;15.52;;
84478;SDS011;74701;43.248;0.066;2024-02-04T04:07:38;21.45;;;15.18;;
84478;SDS011;74701;43.248;0.066;2024-02-04T04:10:04;22.70;;;15.57;;
84478;SDS011;74701;43.248;0.066;2024-02-04T04:12:30;22.27;;;15.10;;
84478;SDS011;74701;43.248;0.066;2024-02-04T04:14:56;24.55;;;14.93;;
84478;SDS011;74701;43.248;0.066;2024-02-04T04:17:22;19.60;;;12.95;;
84478;SDS011;74701;43.248;0.066;2024-02-04T04:19:48;23.48;;;14.38;;
84478;SDS011;74701;43.248;0.066;2024-02-04T04:22:14;20.25;;;12.63;;
84478;SDS011;74701;43.248;0.066;2024-02-04T04:24:40;22.85;;;13.77;;
84478;SDS011;74701;43.248;0.066;2024-02-04T04:27:06;22.45;;;15.20;;
84478;SDS011;74701;43.248;0.066;2024-02-04T04:29:32;22.92;;;15.40;;
84478;SDS011;74701;43.248;0.066;2024-02-04T04:31:58;22.25;;;14.57;;
84478;SDS011;74701;43.248;0.066;2024-02-04T04:34:24;23.30;;;13.90;;
84478;SDS011;74701;43.248;0.066;2024-02-04T04:36:50;21.52;;;14.77;;
84478;SDS011;74701;43.248;0.066;2024-02-04T04:39:16;24.35;;;14.90;;
84478;SDS011;74701;43.248;0.066;2024-02-04T04:41:43;22.98;;;14.68;;
84478;SDS011;74701;43.248;0.066;2024-02-04T04:44:10;23.35;;;15.43;;
84478;SDS011;74701;43.248;0.066;2024-02-04T04:46:39;26.48;;;15.60;;
84478;SDS011;74701;43.248;0.066;2024-02-04T04:49:05;24.40;;;16.10;;
84478;SDS011;74701;43.248;0.066;2024-02-04T04:51:32;25.50;;;16.45;;
84478;SDS011;74701;43.248;0.066;2024-02-04T04:53:58;24.02;;;15.40;;
84478;SDS011;74701;43.248;0.066;2024-02-04T04:56:25;22.95;;;14.60;;
84478;SDS011;74701;43.248;0.066;2024-02-04T04:58:51;21.80;;;14.30;;
84478;SDS011;74701;43.248;0.066;2024-02-04T05:01:17;22.10;;;15.10;;
84478;SDS011;74701;43.248;0.066;2024-02-04T05:03:43;22.15;;;14.32;;
84478;SDS011;74701;43.248;0.066;2024-02-04T05:06:10;19.80;;;13.60;;
84478;SDS011;74701;43.248;0.066;2024-02-04T05:08:36;22.92;;;14.07;;
84478;SDS011;74701;43.248;0.066;2024-02-04T05:11:03;20.90;;;14.23;;
84478;SDS011;74701;43.248;0.066;2024-02-04T05:13:29;25.70;;;15.63;;
84478;SDS011;74701;43.248;0.066;2024-02-04T05:15:56;22.30;;;15.00;;
84478;SDS011;74701;43.248;0.066;2024-02-04T05:18:22;23.83;;;15.95;;
84478;SDS011;74701;43.248;0.066;2024-02-04T05:20:51;25.55;;;16.27;;
84478;SDS011;74701;43.248;0.066;2024-02-04T05:23:17;27.50;;;16.17;;
84478;SDS011;74701;43.248;0.066;2024-02-04T05:25:43;28.23;;;15.82;;
84478;SDS011;74701;43.248;0.066;2024-02-04T05:28:09;23.40;;;14.88;;
84478;SDS011;74701;43.248;0.066;2024-02-04T05:30:35;23.42;;;14.60;;
84478;SDS011;74701;43.248;0.066;2024-02-04T05:33:02;28.42;;;17.23;;
84478;SDS011;74701;43.248;0.066;2024-02-04T05:35:28;24.70;;;16.10;;
84478;SDS011;74701;43.248;0.066;2024-02-04T05:37:54;26.30;;;15.55;;
84478;SDS011;74701;43.248;0.066;2024-02-04T05:40:20;22.60;;;14.77;;
84478;SDS011;74701;43.248;0.066;2024-02-04T05:42:46;25.63;;;15.10;;
84478;SDS011;74701;43.248;0.066;2024-02-04T05:45:12;23.98;;;15.23;;
84478;SDS011;74701;43.248;0.066;2024-02-04T05:47:38;25.63;;;16.10;;
84478;SDS011;74701;43.248;0.066;2024-02-04T05:50:04;23.73;;;15.93;;
84478;SDS011;74701;43.248;0.066;2024-02-04T05:52:31;27.13;;;17.45;;
84478;SDS011;74701;43.248;0.066;2024-02-04T05:54:57;23.70;;;16.70;;
84478;SDS011;74701;43.248;0.066;2024-02-04T05:57:23;24.83;;;16.23;;
84478;SDS011;74701;43.248;0.066;2024-02-04T05:59:50;25.48;;;15.63;;
84478;SDS011;74701;43.248;0.066;2024-02-04T06:02:17;29.05;;;17.33;;
84478;SDS011;74701;43.248;0.066;2024-02-04T06:04:44;25.77;;;17.10;;
84478;SDS011;74701;43.248;0.066;2024-02-04T06:07:11;25.20;;;15.68;;
84478;SDS011;74701;43.248;0.066;2024-02-04T06:09:37;25.00;;;16.63;;
84478;SDS011;74701;43.248;0.066;2024-02-04T06:12:03;24.70;;;15.43;;
84478;SDS011;74701;43.248;0.066;2024-02-04T06:14:32;24.67;;;16.65;;
84478;SDS011;74701;43.248;0.066;2024-02-04T06:16:59;21.17;;;13.50;;
84478;SDS011;74701;43.248;0.066;2024-02-04T06:19:25;28.70;;;16.15;;
84478;SDS011;74701;43.248;0.066;2024-02-04T06:21:51;23.05;;;14.82;;
84478;SDS011;74701;43.248;0.066;2024-02-04T06:24:17;22.02;;;15.75;;
84478;SDS011;74701;43.248;0.066;2024-02-04T06:26:45;22.08;;;14.73;;
84478;SDS011;74701;43.248;0.066;2024-02-04T06:29:11;21.70;;;14.65;;
84478;SDS011;74701;43.248;0.066;2024-02-04T06:31:37;22.65;;;15.77;;
84478;SDS011;74701;43.248;0.066;2024-02-04T06:34:04;27.67;;;17.17;;
84478;SDS011;74701;43.248;0.066;2024-02-04T06:36:30;29.00;;;16.80;;
84478;SDS011;74701;43.248;0.066;2024-02-04T06:38:56;29.50;;;17.65;;
84478;SDS011;74701;43.248;0.066;2024-02-04T06:41:22;24.33;;;16.50;;
84478;SDS011;74701;43.248;0.066;2024-02-04T06:43:48;27.95;;;17.10;;
84478;SDS011;74701;43.248;0.066;2024-02-04T06:46:23;26.38;;;17.95;;
84478;SDS011;74701;43.248;0.066;2024-02-04T06:48:49;30.27;;;19.13;;
84478;SDS011;74701;43.248;0.066;2024-02-04T06:51:15;26.02;;;16.55;;
84478;SDS011;74701;43.248;0.066;2024-02-04T06:53:41;29.10;;;15.98;;
84478;SDS011;74701;43.248;0.066;2024-02-04T06:56:07;28.30;;;16.73;;
84478;SDS011;74701;43.248;0.066;2024-02-04T06:58:33;27.15;;;15.68;;
84478;SDS011;74701;43.248;0.066;2024-02-04T07:00:59;24.33;;;15.02;;
84478;SDS011;74701;43.248;0.066;2024-02-04T07:03:25;24.83;;;15.48;;
84478;SDS011;74701;43.248;0.066;2024-02-04T07:05:51;25.45;;;15.02;;
84478;SDS011;74701;43.248;0.066;2024-02-04T07:08:17;25.80;;;16.00;;
84478;SDS011;74701;43.248;0.066;2024-02-04T07:10:43;27.02;;;16.02;;
84478;SDS011;74701;43.248;0.066;2024-02-04T07:13:09;25.25;;;15.07;;
84478;SDS011;74701;43.248;0.066;2024-02-04T07:15:36;24.50;;;15.73;;
84478;SDS011;74701;43.248;0.066;2024-02-04T07:18:02;24.13;;;14.90;;
84478;SDS011;74701;43.248;0.066;2024-02-04T07:20:28;28.23;;;19.77;;
84478;SDS011;74701;43.248;0.066;2024-02-04T07:22:54;25.88;;;17.10;;
84478;SDS011;74701;43.248;0.066;2024-02-04T07:25:21;28.65;;;18.00;;
84478;SDS011;74701;43.248;0.066;2024-02-04T07:27:47;26.42;;;18.05;;
84478;SDS011;74701;43.248;0.066;2024-02-04T07:30:13;28.45;;;18.90;;
84478;SDS011;74701;43.248;0.066;2024-02-04T07:32:40;27.13;;;18.98;;
84478;SDS011;74701;43.248;0.066;2024-02-04T07:35:06;27.05;;;17.35;;
84478;SDS011;74701;43.248;0.066;2024-02-04T07:37:33;28.13;;;18.25;;
84478;SDS011;74701;43.248;0.066;2024-02-04T07:39:59;25.25;;;17.95;;
84478;SDS011;74701;43.248;0.066;2024-02-04T07:42:26;26.35;;;17.92;;
84478;SDS011;74701;43.248;0.066;2024-02-04T07:44:52;25.98;;;16.42;;
84478;SDS011;74701;43.248;0.066;2024-02-04T07:47:18;27.35;;;17.45;;
84478;SDS011;74701;43.248;0.066;2024-02-04T07:49:46;27.38;;;16.55;;
84478;SDS011;74701;43.248;0.066;2024-02-04T07:52:13;24.88;;;17.27;;
84478;SDS011;74701;43.248;0.066;2024-02-04T07:54:39;24.35;;;15.77;;
84478;SDS011;74701;43.248;0.066;2024-02-04T07:57:05;23.88;;;15.30;;
84478;SDS011;74701;43.248;0.066;2024-02-04T07:59:31;21.48;;;14.15;;
84478;SDS011;74701;43.248;0.066;2024-02-04T08:01:58;19.35;;;13.65;;
84478;SDS011;74701;43.248;0.066;2024-02-04T08:04:24;18.27;;;11.70;;
84478;SDS011;74701;43.248;0.066;2024-02-04T08:06:50;17.73;;;13.13;;
84478;SDS011;74701;43.248;0.066;2024-02-04T08:09:17;17.60;;;11.40;;
84478;SDS011;74701;43.248;0.066;2024-02-04T08:11:43;15.70;;;11.32;;
84478;SDS011;74701;43.248;0.066;2024-02-04T08:14:10;15.52;;;12.10;;
84478;SDS011;74701;43.248;0.066;2024-02-04T08:16:36;14.32;;;11.23;;
84478;SDS011;74701;43.248;0.066;2024-02-04T08:19:02;14.98;;;11.35;;
84478;SDS011;74701;43.248;0.066;2024-02-04T08:21:31;14.23;;;11.63;;
84478;SDS011;74701;43.248;0.066;2024-02-04T08:23:57;16.33;;;11.32;;
84478;SDS011;74701;43.248;0.066;2024-02-04T08:26:23;16.52;;;11.75;;
84478;SDS011;74701;43.248;0.066;2024-02-04T08:28:50;17.00;;;12.23;;
84478;SDS011;74701;43.248;0.066;2024-02-04T08:31:16;16.58;;;12.07;;
84478;SDS011;74701;43.248;0.066;2024-02-04T08:33:42;14.07;;;11.05;;
84478;SDS011;74701;43.248;0.066;2024-02-04T08:36:08;15.25;;;11.60;;
84478;SDS011;74701;43.248;0.066;2024-02-04T08:38:37;14.20;;;10.15;;
84478;SDS011;74701;43.248;0.066;2024-02-04T08:41:03;14.57;;;11.18;;
84478;SDS011;74701;43.248;0.066;2024-02-04T08:43:30;13.40;;;10.40;;
84478;SDS011;74701;43.248;0.066;2024-02-04T08:45:56;12.90;;;10.48;;
84478;SDS011;74701;43.248;0.066;2024-02-04T08:48:22;14.57;;;11.48;;
84478;SDS011;74701;43.248;0.066;2024-02-04T08:50:48;15.55;;;10.75;;
84478;SDS011;74701;43.248;0.066;2024-02-04T08:53:14;15.55;;;10.82;;
84478;SDS011;74701;43.248;0.066;2024-02-04T08:55:40;18.83;;;11.82;;
84478;SDS011;74701;43.248;0.066;2024-02-04T08:58:06;14.35;;;10.18;;
84478;SDS011;74701;43.248;0.066;2024-02-04T09:00:32;12.90;;;10.30;;
84478;SDS011;74701;43.248;0.066;2024-02-04T09:02:58;17.65;;;11.02;;
84478;SDS011;74701;43.248;0.066;2024-02-04T09:05:24;26.50;;;12.55;;
84478;SDS011;74701;43.248;0.066;2024-02-04T09:07:50;24.73;;;13.35;;
84478;SDS011;74701;43.248;0.066;2024-02-04T09:10:16;20.95;;;12.95;;
84478;SDS011;74701;43.248;0.066;2024-02-04T09:12:44;28.05;;;14.18;;
84478;SDS011;74701;43.248;0.066;2024-02-04T09:15:10;88.10;;;17.00;;
84478;SDS011;74701;43.248;0.066;2024-02-04T09:17:36;59.55;;;15.77;;
84478;SDS011;74701;43.248;0.066;2024-02-04T09:20:02;55.50;;;20.55;;
84478;SDS011;74701;43.248;0.066;2024-02-04T09:22:29;47.30;;;14.18;;
84478;SDS011;74701;43.248;0.066;2024-02-04T09:24:55;101.95;;;32.08;;
84478;SDS011;74701;43.248;0.066;2024-02-04T09:27:21;48.60;;;20.25;;
84478;SDS011;74701;43.248;0.066;2024-02-04T09:29:47;81.30;;;20.33;;
84478;SDS011;74701;43.248;0.066;2024-02-04T09:32:13;79.68;;;22.75;;
84478;SDS011;74701;43.248;0.066;2024-02-04T09:34:39;77.70;;;23.08;;
84478;SDS011;74701;43.248;0.066;2024-02-04T09:37:05;83.60;;;22.25;;
84478;SDS011;74701;43.248;0.066;2024-02-04T09:39:32;126.05;;;25.45;;
84478;SDS011;74701;43.248;0.066;2024-02-04T09:41:58;80.65;;;21.90;;
84478;SDS011;74701;43.248;0.066;2024-02-04T09:44:24;120.82;;;25.67;;
84478;SDS011;74701;43.248;0.066;2024-02-04T09:46:51;146.43;;;22.42;;
84478;SDS011;74701;43.248;0.066;2024-02-04T09:49:17;90.05;;;19.02;;
84478;SDS011;74701;43.248;0.066;2024-02-04T09:51:43;100.30;;;20.52;;
84478;SDS011;74701;43.248;0.066;2024-02-04T09:54:10;41.17;;;16.10;;
84478;SDS011;74701;43.248;0.066;2024-02-04T09:56:37;32.65;;;16.20;;
84478;SDS011;74701;43.248;0.066;2024-02-04T09:59:03;34.33;;;15.77;;
84478;SDS011;74701;43.248;0.066;2024-02-04T10:01:29;26.48;;;15.05;;
84478;SDS011;74701;43.248;0.066;2024-02-04T10:03:56;23.05;;;13.70;;
84478;SDS011;74701;43.248;0.066;2024-02-04T10:06:22;27.35;;;15.13;;
84478;SDS011;74701;43.248;0.066;2024-02-04T10:08:48;25.73;;;16.38;;
84478;SDS011;74701;43.248;0.066;2024-02-04T10:11:14;24.83;;;16.77;;
84478;SDS011;74701;43.248;0.066;2024-02-04T10:13:47;26.77;;;17.20;;
84478;SDS011;74701;43.248;0.066;2024-02-04T10:16:14;26.27;;;17.83;;
84478;SDS011;74701;43.248;0.066;2024-02-04T10:18:46;27.58;;;19.10;;
84478;SDS011;74701;43.248;0.066;2024-02-04T10:21:20;26.85;;;18.83;;
84478;SDS011;74701;43.248;0.066;2024-02-04T10:23:49;30.90;;;18.45;;
84478;SDS011;74701;43.248;0.066;2024-02-04T10:26:15;27.42;;;19.40;;
84478;SDS011;74701;43.248;0.066;2024-02-04T10:28:41;27.90;;;18.52;;
84478;SDS011;74701;43.248;0.066;2024-02-04T10:31:08;24.80;;;18.17;;
84478;SDS011;74701;43.248;0.066;2024-02-04T10:33:35;22.92;;;16.10;;
84478;SDS011;74701;43.248;0.066;2024-02-04T10:36:01;25.20;;;16.65;;
84478;SDS011;74701;43.248;0.066;2024-02-04T10:38:27;23.55;;;16.55;;
84478;SDS011;74701;43.248;0.066;2024-02-04T10:40:54;25.20;;;16.88;;
84478;SDS011;74701;43.248;0.066;2024-02-04T10:43:20;25.48;;;18.33;;
84478;SDS011;74701;43.248;0.066;2024-02-04T10:45:48;22.55;;;16.50;;
84478;SDS011;74701;43.248;0.066;2024-02-04T10:48:19;23.40;;;16.15;;
84478;SDS011;74701;43.248;0.066;2024-02-04T10:50:46;35.92;;;19.77;;
84478;SDS011;74701;43.248;0.066;2024-02-04T10:53:15;25.27;;;15.45;;
84478;SDS011;74701;43.248;0.066;2024-02-04T10:55:43;22.38;;;15.10;;
84478;SDS011;74701;43.248;0.066;2024-02-04T10:58:12;24.65;;;15.52;;
84478;SDS011;74701;43.248;0.066;2024-02-04T11:00:39;22.20;;;15.40;;
84478;SDS011;74701;43.248;0.066;2024-02-04T11:03:06;22.20;;;15.07;;
84478;SDS011;74701;43.248;0.066;2024-02-04T11:05:33;24.90;;;15.00;;
84478;SDS011;74701;43.248;0.066;2024-02-04T11:08:01;23.50;;;16.10;;
84478;SDS011;74701;43.248;0.066;2024-02-04T11:10:29;21.80;;;16.13;;
84478;SDS011;74701;43.248;0.066;2024-02-04T11:12:55;23.85;;;16.17;;
84478;SDS011;74701;43.248;0.066;2024-02-04T11:15:23;20.50;;;15.23;;
84478;SDS011;74701;43.248;0.066;2024-02-04T11:17:54;24.85;;;15.90;;
84478;SDS011;74701;43.248;0.066;2024-02-04T11:23:17;19.98;;;14.85;;
84478;SDS011;74701;43.248;0.066;2024-02-04T11:25:49;23.92;;;16.15;;
84478;SDS011;74701;43.248;0.066;2024-02-04T11:28:15;22.88;;;16.67;;
84478;SDS011;74701;43.248;0.066;2024-02-04T11:30:45;22.42;;;15.38;;
84478;SDS011;74701;43.248;0.066;2024-02-04T11:33:11;21.80;;;15.90;;
84478;SDS011;74701;43.248;0.066;2024-02-04T11:35:38;24.25;;;16.27;;
84478;SDS011;74701;43.248;0.066;2024-02-04T11:38:04;22.95;;;16.02;;
84478;SDS011;74701;43.248;0.066;2024-02-04T11:40:34;24.65;;;15.32;;
84478;SDS011;74701;43.248;0.066;2024-02-04T11:43:07;21.58;;;15.30;;
84478;SDS011;74701;43.248;0.066;2024-02-04T11:45:39;19.80;;;15.48;;
84478;SDS011;74701;43.248;0.066;2024-02-04T11:48:08;23.00;;;16.13;;
84478;SDS011;74701;43.248;0.066;2024-02-04T11:50:35;23.10;;;15.88;;
84478;SDS011;74701;43.248;0.066;2024-02-04T11:53:05;21.15;;;15.43;;
84478;SDS011;74701;43.248;0.066;2024-02-04T11:55:31;21.45;;;15.65;;
84478;SDS011;74701;43.248;0.066;2024-02-04T11:57:59;22.90;;;16.05;;
84478;SDS011;74701;43.248;0.066;2024-02-04T12:00:25;24.83;;;19.05;;
84478;SDS011;74701;43.248;0.066;2024-02-04T12:03:04;26.20;;;16.48;;
84478;SDS011;74701;43.248;0.066;2024-02-04T12:05:31;21.80;;;17.08;;
84478;SDS011;74701;43.248;0.066;2024-02-04T12:07:59;24.88;;;17.33;;
84478;SDS011;74701;43.248;0.066;2024-02-04T12:10:26;22.02;;;17.38;;
84478;SDS011;74701;43.248;0.066;2024-02-04T12:12:52;21.23;;;16.70;;
84478;SDS011;74701;43.248;0.066;2024-02-04T12:15:18;21.90;;;16.63;;
84478;SDS011;74701;43.248;0.066;2024-02-04T12:17:45;22.00;;;17.23;;
84478;SDS011;74701;43.248;0.066;2024-02-04T12:20:11;23.02;;;15.68;;
84478;SDS011;74701;43.248;0.066;2024-02-04T12:22:37;17.52;;;12.55;;
84478;SDS011;74701;43.248;0.066;2024-02-04T12:25:03;14.93;;;11.52;;
84478;SDS011;74701;43.248;0.066;2024-02-04T12:27:30;13.43;;;10.48;;
84478;SDS011;74701;43.248;0.066;2024-02-04T12:29:56;12.65;;;9.98;;
84478;SDS011;74701;43.248;0.066;2024-02-04T12:32:22;12.95;;;9.80;;
84478;SDS011;74701;43.248;0.066;2024-02-04T12:34:48;10.90;;;9.50;;
84478;SDS011;74701;43.248;0.066;2024-02-04T12:37:19;13.40;;;9.50;;
84478;SDS011;74701;43.248;0.066;2024-02-04T12:39:45;11.50;;;10.05;;
84478;SDS011;74701;43.248;0.066;2024-02-04T12:42:17;10.93;;;9.30;;
84478;SDS011;74701;43.248;0.066;2024-02-04T12:44:45;10.75;;;9.65;;
84478;SDS011;74701;43.248;0.066;2024-02-04T12:47:12;11.63;;;9.00;;
84478;SDS011;74701;43.248;0.066;2024-02-04T12:49:39;9.77;;;8.65;;
84478;SDS011;74701;43.248;0.066;2024-02-04T12:52:06;8.80;;;7.90;;
84478;SDS011;74701;43.248;0.066;2024-02-04T12:54:44;10.32;;;8.38;;
84478;SDS011;74701;43.248;0.066;2024-02-04T12:57:21;9.50;;;8.52;;
84478;SDS011;74701;43.248;0.066;2024-02-04T12:59:48;9.38;;;8.07;;
84478;SDS011;74701;43.248;0.066;2024-02-04T13:02:14;10.23;;;7.68;;
84478;SDS011;74701;43.248;0.066;2024-02-04T13:04:41;9.32;;;8.40;;
84478;SDS011;74701;43.248;0.066;2024-02-04T13:09:39;9.88;;;8.85;;
84478;SDS011;74701;43.248;0.066;2024-02-04T13:12:05;8.82;;;7.93;;
84478;SDS011;74701;43.248;0.066;2024-02-04T13:14:33;11.20;;;9.10;;
84478;SDS011;74701;43.248;0.066;2024-02-04T13:16:59;9.02;;;8.05;;
84478;SDS011;74701;43.248;0.066;2024-02-04T13:19:31;11.07;;;8.30;;
84478;SDS011;74701;43.248;0.066;2024-02-04T13:21:58;9.25;;;8.25;;
84478;SDS011;74701;43.248;0.066;2024-02-04T13:24:24;9.20;;;8.30;;
84478;SDS011;74701;43.248;0.066;2024-02-04T13:26:50;10.00;;;9.00;;
84478;SDS011;74701;43.248;0.066;2024-02-04T13:29:16;10.48;;;8.95;;
84478;SDS011;74701;43.248;0.066;2024-02-04T13:31:42;10.88;;;9.80;;
84478;SDS011;74701;43.248;0.066;2024-02-04T13:34:08;8.63;;;7.72;;
84478;SDS011;74701;43.248;0.066;2024-02-04T13:36:34;8.93;;;8.00;;
84478;SDS011;74701;43.248;0.066;2024-02-04T13:39:00;9.90;;;8.90;;
84478;SDS011;74701;43.248;0.066;2024-02-04T13:41:26;9.50;;;8.63;;
84478;SDS011;74701;43.248;0.066;2024-02-04T13:43:53;12.32;;;9.95;;
84478;SDS011;74701;43.248;0.066;2024-02-04T13:46:19;11.90;;;10.80;;
84478;SDS011;74701;43.248;0.066;2024-02-04T13:48:45;12.23;;;10.95;;
84478;SDS011;74701;43.248;0.066;2024-02-04T13:51:11;12.70;;;11.40;;
84478;SDS011;74701;43.248;0.066;2024-02-04T13:53:37;11.48;;;10.27;;
84478;SDS011;74701;43.248;0.066;2024-02-04T13:56:03;10.95;;;9.77;;
84478;SDS011;74701;43.248;0.066;2024-02-04T13:58:31;9.77;;;8.88;;
84478;SDS011;74701;43.248;0.066;2024-02-04T14:00:57;9.75;;;8.82;;
84478;SDS011;74701;43.248;0.066;2024-02-04T14:03:24;8.65;;;7.85;;
84478;SDS011;74701;43.248;0.066;2024-02-04T14:05:50;8.40;;;7.57;;
84478;SDS011;74701;43.248;0.066;2024-02-04T14:08:17;9.50;;;8.60;;
84478;SDS011;74701;43.248;0.066;2024-02-04T14:10:43;9.88;;;8.90;;
84478;SDS011;74701;43.248;0.066;2024-02-04T14:13:09;10.27;;;9.27;;
84478;SDS011;74701;43.248;0.066;2024-02-04T14:15:36;10.35;;;9.38;;
84478;SDS011;74701;43.248;0.066;2024-02-04T14:18:02;8.65;;;7.85;;
84478;SDS011;74701;43.248;0.066;2024-02-04T14:20:29;8.02;;;7.22;;
84478;SDS011;74701;43.248;0.066;2024-02-04T14:22:55;7.60;;;6.90;;
84478;SDS011;74701;43.248;0.066;2024-02-04T14:25:22;6.88;;;6.28;;
84478;SDS011;74701;43.248;0.066;2024-02-04T14:27:49;5.95;;;5.45;;